Map

Track Data

SID SEASON NUMBER BASIN SUBBASIN NAME ISO_TIME NATURE LAT LON WMO_WIND WMO_PRES WMO_AGENCY TRACK_TYPE DIST2LAND LANDFALL IFLAG USA_AGENCY USA_ATCF_ID USA_LAT USA_LON USA_RECORD USA_STATUS USA_WIND USA_PRES USA_SSHS USA_R34_NE USA_R34_SE USA_R34_SW USA_R34_NW USA_R50_NE USA_R50_SE USA_R50_SW USA_R50_NW USA_R64_NE USA_R64_SE USA_R64_SW USA_R64_NW USA_POCI USA_ROCI USA_RMW USA_EYE TOKYO_LAT TOKYO_LON TOKYO_GRADE TOKYO_WIND TOKYO_PRES TOKYO_R50_DIR TOKYO_R50_LONG TOKYO_R50_SHORT TOKYO_R30_DIR TOKYO_R30_LONG TOKYO_R30_SHORT TOKYO_LAND CMA_LAT CMA_LON CMA_CAT CMA_WIND CMA_PRES HKO_LAT HKO_LON HKO_CAT HKO_WIND HKO_PRES NEWDELHI_LAT NEWDELHI_LON NEWDELHI_GRADE NEWDELHI_WIND NEWDELHI_PRES NEWDELHI_CI NEWDELHI_DP NEWDELHI_POCI REUNION_LAT REUNION_LON REUNION_TYPE REUNION_WIND REUNION_PRES REUNION_TNUM REUNION_CI REUNION_RMW REUNION_R34_NE REUNION_R34_SE REUNION_R34_SW REUNION_R34_NW REUNION_R50_NE REUNION_R50_SE REUNION_R50_SW REUNION_R50_NW REUNION_R64_NE REUNION_R64_SE REUNION_R64_SW REUNION_R64_NW BOM_LAT BOM_LON BOM_TYPE BOM_WIND BOM_PRES BOM_TNUM BOM_CI BOM_RMW BOM_R34_NE BOM_R34_SE BOM_R34_SW BOM_R34_NW BOM_R50_NE BOM_R50_SE BOM_R50_SW BOM_R50_NW BOM_R64_NE BOM_R64_SE BOM_R64_SW BOM_R64_NW BOM_ROCI BOM_POCI BOM_EYE BOM_POS_METHOD BOM_PRES_METHOD NADI_LAT NADI_LON NADI_CAT NADI_WIND NADI_PRES WELLINGTON_LAT WELLINGTON_LON WELLINGTON_WIND WELLINGTON_PRES DS824_LAT DS824_LON DS824_STAGE DS824_WIND DS824_PRES TD9636_LAT TD9636_LON TD9636_STAGE TD9636_WIND TD9636_PRES TD9635_LAT TD9635_LON TD9635_WIND TD9635_PRES TD9635_ROCI NEUMANN_LAT NEUMANN_LON NEUMANN_CLASS NEUMANN_WIND NEUMANN_PRES MLC_LAT MLC_LON MLC_CLASS MLC_WIND MLC_PRES USA_GUST BOM_GUST BOM_GUST_PER REUNION_GUST REUNION_GUST_PER USA_SEAHGT USA_SEARAD_NE USA_SEARAD_SE USA_SEARAD_SW USA_SEARAD_NW STORM_SPEED STORM_DIR
2022089S16109 2022 9 SI WA NOT_NAMED 2022-03-30 00:00:00 NR -15.6000 108.800 20 1005 bom main 854 851 ______O_______ -5 -15.6000 108.800 20 20 1005 1.00000 1.00000 150 1010 3 5 45 45 8 127
2022089S16109 2022 9 SI WA NOT_NAMED 2022-03-30 03:00:00 NR -15.8502 109.145 main 846 800 ______P_______ -5 -15.8502 109.145 20 20 1004 150 1010 8 136
2022089S16109 2022 9 SI WA NOT_NAMED 2022-03-30 06:00:00 NR -16.2000 109.400 20 1004 bom main 800 749 ______O_______ -5 -16.2000 109.400 20 20 1004 1.50000 1.50000 150 1010 3 45 45 9 158
2022089S16109 2022 9 SI WA NOT_NAMED 2022-03-30 09:00:00 NR -16.7124 109.515 main 749 690 ______P_______ -5 -16.7124 109.515 20 22 1004 150 1010 11 170
2022089S16109 2022 9 SI WA NOT_NAMED 2022-03-30 12:00:00 NR -17.3000 109.600 25 1004 bom main 690 642 ______O_______ -5 -17.3000 109.600 20 25 1004 1.50000 1.50000 150 1010 3 45 45 12 170
2022089S16109 2022 9 SI WA NOT_NAMED 2022-03-30 15:00:00 NR -17.8422 109.726 main 642 572 ______P_______ -5 -17.8422 109.726 20 25 1004 150 1010 12 161
2022089S16109 2022 9 SI WA NOT_NAMED 2022-03-30 18:00:00 NR -18.4000 110.000 25 1004 bom main 572 480 ______O_______ -5 -18.4000 110.000 20 25 1004 1.50000 1.50000 150 1010 3 45 45 14 145
2022089S16109 2022 9 SI WA NOT_NAMED 2022-03-30 21:00:00 NR -19.0157 110.599 main 480 388 ______P_______ -5 -19.0157 110.599 20 25 1004 150 1010 17 137
2022089S16109 2022 9 SI WA NOT_NAMED 2022-03-31 00:00:00 NR -19.6000 111.200 25 1004 bom main 388 343 ______O_______ -5 -19.6000 111.200 20 25 1004 1.50000 1.50000 150 1010 3 34 34 13 141
2022089S16109 2022 9 SI WA NOT_NAMED 2022-03-31 03:00:00 NR -20.0196 111.454 main 335 293 ______P_______ -5 -20.0196 111.454 20 25 1004 150 1010 10 157
2022089S16109 2022 9 SI WA NOT_NAMED 2022-03-31 06:00:00 NR -20.5000 111.600 25 1004 bom main 293 239 ______O_______ -5 -20.5000 111.600 20 25 1004 2.00000 2.00000 150 1010 3 34 34 13 163
2022089S16109 2022 9 SI WA NOT_NAMED 2022-03-31 09:00:00 NR -21.2626 111.857 main 225 164 ______P_______ -5 -21.2626 111.857 20 25 1004 134 1010 17 164
2022089S16109 2022 9 SI WA NOT_NAMED 2022-03-31 12:00:00 NR -22.1000 112.100 25 1004 bom main 164 133 ______O_______ -5 -22.1000 112.100 20 25 1004 2.00000 2.00000 119 1010 3 34 34 16 166
2022089S16109 2022 9 SI WA NOT_NAMED 2022-03-31 15:00:00 NR -22.7925 112.280 main 135 120 ______P_______ -5 -22.7925 112.280 20 25 1004 109 1010 14 169
2022089S16109 2022 9 SI WA NOT_NAMED 2022-03-31 18:00:00 NR -23.5000 112.400 25 1004 bom main 120 101 ______O_______ -5 -23.5000 112.400 20 25 1004 1.50000 2.00000 99 1010 3 34 34 16 174
2022089S16109 2022 9 SI WA NOT_NAMED 2022-03-31 21:00:00 NR -24.3799 112.450 main 91 91 ______P_______ -5 -24.3799 112.450 20 22 1004 99 1010 17 177
2022089S16109 2022 9 SI WA NOT_NAMED 2022-04-01 00:00:00 NR -25.2000 112.500 20 1004 bom main 106 70 ______O_______ -5 -25.2000 112.500 20 20 1004 1.00000 1.50000 99 1010 3 34 34 14 171
2022089S16109 2022 9 SI WA NOT_NAMED 2022-04-01 03:00:00 NR -25.7375 112.679 main 70 49 ______P_______ -5 -25.7375 112.679 20 20 1004 99 1010 10 165
2022089S16109 2022 9 SI WA NOT_NAMED 2022-04-01 06:00:00 NR -26.2000 112.800 20 1004 bom main 49 49 ______O_______ -5 -26.2000 112.800 70 20 1004 1.50000 1.50000 99 1010 3 34 34 11 0
2022089S16109 2022 9 SI WA NOT_NAMED 2022-04-01 09:00:00 NR -26.8450 112.703 main 81 81 ______P_______ -5 -26.8450 112.703 70 17 1004 99 1010 12 193
2022089S16109 2022 9 SI WA NOT_NAMED 2022-04-01 12:00:00 NR -27.4000 112.500 15 1004 bom main 133 133 ______O_______ -5 -27.4000 112.500 70 15 1004 99 1010 3 34 34 9 203
2022089S16109 2022 9 SI WA NOT_NAMED 2022-04-01 15:00:00 NR -27.6825 112.300 main 167 167 ______P_______ -5 -27.6825 112.300 70 15 1004 99 1010 5 221
2022089S16109 2022 9 SI WA NOT_NAMED 2022-04-01 18:00:00 NR -27.8000 112.100 15 1004 bom main 189 189 ______O_______ -5 -27.8000 112.100 70 15 1004 99 1010 3 34 34 4 237
2022089S16109 2022 9 SI WA NOT_NAMED 2022-04-01 21:00:00 NR -27.9100 111.897 main 212 212 ______P_______ -5 -27.9100 111.897 70 15 1004 99 1010 3 249
2022089S16109 2022 9 SI WA NOT_NAMED 2022-04-02 00:00:00 NR -27.9000 111.800 15 1004 bom main 221 201 ______O_______ -5 -27.9000 111.800 70 15 1004 99 1010 3 34 34 2 353
2022089S16109 2022 9 SI WA NOT_NAMED 2022-04-02 03:00:00 NR -27.7300 111.890 main 201 173 ______P_______ -5 -27.7300 111.890 70 15 1004 99 1010 5 34
2022089S16109 2022 9 SI WA NOT_NAMED 2022-04-02 06:00:00 NR -27.5000 112.100 15 1004 bom main 173 150 ______O_______ -5 -27.5000 112.100 70 15 1004 99 1010 3 34 34 6 46
2022089S16109 2022 9 SI WA NOT_NAMED 2022-04-02 09:00:00 NR -27.3426 112.342 main 145 113 ______P_______ -5 -27.3426 112.342 70 15 1005 89 1010 5 56
2022089S16109 2022 9 SI WA NOT_NAMED 2022-04-02 12:00:00 NR -27.2000 112.600 15 1006 bom main 113 86 ______O_______ -5 -27.2000 112.600 70 15 1006 79 1010 3 34 34 5 50
2022089S16109 2022 9 SI WA NOT_NAMED 2022-04-02 15:00:00 NR -27.0049 112.793 main 86 63 ______P_______ -5 -27.0049 112.793 70 15 1006 79 1010 5 50
2022089S16109 2022 9 SI WA NOT_NAMED 2022-04-02 18:00:00 NR -26.9000 113.000 15 1006 bom main 63 44 ______O_______ -5 -26.9000 113.000 70 15 1006 79 1010 3 34 34 4 88
2022089S16109 2022 9 SI WA NOT_NAMED 2022-04-02 21:00:00 NR -26.9902 113.277 main 44 29 ______P_______ -5 -26.9902 113.277 70 15 1006 69 1010 6 119
2022089S16109 2022 9 SI WA NOT_NAMED 2022-04-03 00:00:00 NR -27.2000 113.600 15 1006 bom main 29 ______O_______ -5 -27.2000 113.600 70 15 1006 59 1010 3 34 34 7 126

About IBTrACS Database

This database is a web-friendly format of International Best Track Archive for Climate Stewardship (IBTrACS), a global best track data archive curated by NOAA dating back to 1842.

Updated: 2022-11-16